sensor_id;sensor_type;location;lat;lon;timestamp;pressure;altitude;pressure_sealevel;temperature;humidity
48792;BME280;34587;48.816;9.420;2023-10-08T04:47:33;99602.25;;;9.57;100.00
48792;BME280;34587;48.816;9.420;2023-10-08T04:50:00;99604.84;;;9.49;100.00
48792;BME280;34587;48.816;9.420;2023-10-08T04:52:29;99599.69;;;9.54;100.00
48792;BME280;34587;48.816;9.420;2023-10-08T04:54:54;99595.34;;;9.55;100.00
48792;BME280;34587;48.816;9.420;2023-10-08T04:57:21;99600.53;;;9.42;100.00
48792;BME280;34587;48.816;9.420;2023-10-08T04:59:51;99598.81;;;9.32;100.00
48792;BME280;34587;48.816;9.420;2023-10-08T05:02:17;99600.53;;;9.30;100.00
48792;BME280;34587;48.816;9.420;2023-10-08T05:05:14;99597.06;;;9.22;100.00
48792;BME280;34587;48.816;9.420;2023-10-08T05:07:39;99603.13;;;9.30;100.00
48792;BME280;34587;48.816;9.420;2023-10-08T05:10:11;99600.53;;;9.24;100.00
48792;BME280;34587;48.816;9.420;2023-10-08T05:12:56;99605.72;;;9.25;100.00
48792;BME280;34587;48.816;9.420;2023-10-08T05:15:32;99605.69;;;9.27;100.00
48792;BME280;34587;48.816;9.420;2023-10-08T05:18:07;99610.03;;;9.19;100.00
48792;BME280;34587;48.816;9.420;2023-10-08T05:20:50;99621.25;;;9.33;100.00
48792;BME280;34587;48.816;9.420;2023-10-08T05:23:17;99624.69;;;9.43;100.00
48792;BME280;34587;48.816;9.420;2023-10-08T05:25:57;99630.72;;;9.51;100.00
48792;BME280;34587;48.816;9.420;2023-10-08T05:28:37;99623.81;;;9.48;100.00
48792;BME280;34587;48.816;9.420;2023-10-08T05:31:14;99622.94;;;9.40;100.00
48792;BME280;34587;48.816;9.420;2023-10-08T05:33:40;99628.09;;;9.22;100.00
48792;BME280;34587;48.816;9.420;2023-10-08T05:36:24;99622.94;;;9.19;100.00
48792;BME280;34587;48.816;9.420;2023-10-08T05:39:18;99629.81;;;9.17;100.00
48792;BME280;34587;48.816;9.420;2023-10-08T05:41:55;99628.97;;;9.12;100.00
48792;BME280;34587;48.816;9.420;2023-10-08T05:44:41;99618.63;;;9.21;100.00
48792;BME280;34587;48.816;9.420;2023-10-08T05:47:25;99629.84;;;9.32;100.00
48792;BME280;34587;48.816;9.420;2023-10-08T05:50:04;99628.97;;;9.36;100.00
48792;BME280;34587;48.816;9.420;2023-10-08T05:52:45;99633.31;;;9.45;100.00
48792;BME280;34587;48.816;9.420;2023-10-08T05:55:29;99633.31;;;9.49;100.00
48792;BME280;34587;48.816;9.420;2023-10-08T05:58:08;99643.66;;;9.52;100.00
48792;BME280;34587;48.816;9.420;2023-10-08T06:00:44;99641.94;;;9.58;100.00
48792;BME280;34587;48.816;9.420;2023-10-08T06:03:19;99643.63;;;9.75;100.00
48792;BME280;34587;48.816;9.420;2023-10-08T06:06:12;99639.31;;;9.76;100.00
48792;BME280;34587;48.816;9.420;2023-10-08T06:08:38;99644.50;;;9.93;100.00
48792;BME280;34587;48.816;9.420;2023-10-08T06:11:22;99641.03;;;10.01;100.00
48792;BME280;34587;48.816;9.420;2023-10-08T06:14:03;99640.13;;;10.22;100.00
48792;BME280;34587;48.816;9.420;2023-10-08T06:16:38;99633.19;;;10.23;100.00
48792;BME280;34587;48.816;9.420;2023-10-08T06:19:15;99630.63;;;10.35;100.00
48792;BME280;34587;48.816;9.420;2023-10-08T06:21:41;99621.91;;;10.56;100.00
48792;BME280;34587;48.816;9.420;2023-10-08T06:24:08;99627.91;;;10.66;100.00
48792;BME280;34587;48.816;9.420;2023-10-08T06:26:38;99623.59;;;10.65;100.00
48792;BME280;34587;48.816;9.420;2023-10-08T06:29:14;99624.38;;;10.79;100.00
48792;BME280;34587;48.816;9.420;2023-10-08T06:31:56;99628.75;;;10.69;100.00
48792;BME280;34587;48.816;9.420;2023-10-08T06:34:22;99632.16;;;10.77;100.00
48792;BME280;34587;48.816;9.420;2023-10-08T06:36:50;99632.09;;;10.93;100.00
48792;BME280;34587;48.816;9.420;2023-10-08T06:39:23;99632.03;;;10.99;100.00
48792;BME280;34587;48.816;9.420;2023-10-08T06:41:58;99631.19;;;10.98;100.00
48792;BME280;34587;48.816;9.420;2023-10-08T06:44:24;99632.09;;;10.90;100.00
48792;BME280;34587;48.816;9.420;2023-10-08T06:46:49;99627.72;;;10.99;100.00
48792;BME280;34587;48.816;9.420;2023-10-08T06:49:17;99634.63;;;11.03;100.00
48792;BME280;34587;48.816;9.420;2023-10-08T06:51:43;99628.56;;;11.00;100.00
48792;BME280;34587;48.816;9.420;2023-10-08T06:54:09;99632.81;;;11.12;100.00
48792;BME280;34587;48.816;9.420;2023-10-08T06:56:42;99638.81;;;11.17;100.00
48792;BME280;34587;48.816;9.420;2023-10-08T06:59:15;99639.69;;;11.19;100.00
48792;BME280;34587;48.816;9.420;2023-10-08T07:01:42;99650.03;;;11.25;100.00
48792;BME280;34587;48.816;9.420;2023-10-08T07:04:11;99642.22;;;11.28;100.00
48792;BME280;34587;48.816;9.420;2023-10-08T07:06:40;99648.31;;;11.27;100.00
48792;BME280;34587;48.816;9.420;2023-10-08T07:09:06;99653.50;;;11.21;100.00
48792;BME280;34587;48.816;9.420;2023-10-08T07:11:38;99650.78;;;11.42;100.00
48792;BME280;34587;48.816;9.420;2023-10-08T07:14:09;99654.97;;;11.62;100.00
48792;BME280;34587;48.816;9.420;2023-10-08T07:16:36;99653.94;;;11.81;100.00
48792;BME280;34587;48.816;9.420;2023-10-08T07:19:01;99659.13;;;11.79;100.00
48792;BME280;34587;48.816;9.420;2023-10-08T07:21:28;99652.00;;;12.06;100.00
48792;BME280;34587;48.816;9.420;2023-10-08T07:24:10;99655.00;;;12.48;100.00
48792;BME280;34587;48.816;9.420;2023-10-08T07:26:40;99662.59;;;12.65;100.00
48792;BME280;34587;48.816;9.420;2023-10-08T07:29:12;99649.28;;;12.89;100.00
48792;BME280;34587;48.816;9.420;2023-10-08T07:31:39;99652.53;;;13.06;100.00
48792;BME280;34587;48.816;9.420;2023-10-08T07:34:07;99640.97;;;13.27;100.00
48792;BME280;34587;48.816;9.420;2023-10-08T07:36:47;99645.09;;;13.42;100.00
48792;BME280;34587;48.816;9.420;2023-10-08T07:39:13;99642.59;;;13.36;100.00
48792;BME280;34587;48.816;9.420;2023-10-08T07:41:58;99648.69;;;13.35;100.00
48792;BME280;34587;48.816;9.420;2023-10-08T07:44:25;99650.66;;;13.16;100.00
48792;BME280;34587;48.816;9.420;2023-10-08T07:46:53;99654.16;;;13.15;100.00
48792;BME280;34587;48.816;9.420;2023-10-08T07:49:20;99644.53;;;13.19;100.00
48792;BME280;34587;48.816;9.420;2023-10-08T07:51:46;99645.84;;;13.50;100.00
48792;BME280;34587;48.816;9.420;2023-10-08T07:54:21;99641.44;;;13.54;100.00
48792;BME280;34587;48.816;9.420;2023-10-08T07:56:48;99644.06;;;13.52;100.00
48792;BME280;34587;48.816;9.420;2023-10-08T07:59:17;99637.16;;;13.48;100.00
48792;BME280;34587;48.816;9.420;2023-10-08T08:01:43;99622.50;;;13.44;100.00
48792;BME280;34587;48.816;9.420;2023-10-08T08:04:12;99617.31;;;13.43;100.00
48792;BME280;34587;48.816;9.420;2023-10-08T08:06:47;99628.31;;;13.58;100.00
48792;BME280;34587;48.816;9.420;2023-10-08T08:09:18;99632.31;;;13.79;100.00
48792;BME280;34587;48.816;9.420;2023-10-08T08:11:48;99656.88;;;13.65;100.00
48792;BME280;34587;48.816;9.420;2023-10-08T08:14:15;99666.47;;;14.13;100.00
48792;BME280;34587;48.816;9.420;2023-10-08T08:16:50;99674.91;;;15.14;100.00
48792;BME280;34587;48.816;9.420;2023-10-08T08:19:16;99684.03;;;15.34;100.00
48792;BME280;34587;48.816;9.420;2023-10-08T08:21:43;99677.53;;;16.85;98.11
48792;BME280;34587;48.816;9.420;2023-10-08T08:24:11;99670.19;;;20.94;71.91
48792;BME280;34587;48.816;9.420;2023-10-08T08:26:37;99662.97;;;25.02;49.66
48792;BME280;34587;48.816;9.420;2023-10-08T08:29:25;99678.00;;;26.36;41.60
48792;BME280;34587;48.816;9.420;2023-10-08T08:31:51;99680.53;;;27.27;42.09
48792;BME280;34587;48.816;9.420;2023-10-08T08:34:18;99681.66;;;26.61;41.53
48792;BME280;34587;48.816;9.420;2023-10-08T08:36:45;99684.66;;;26.04;43.14
48792;BME280;34587;48.816;9.420;2023-10-08T08:39:14;99686.72;;;27.15;40.60
48792;BME280;34587;48.816;9.420;2023-10-08T08:41:57;99692.38;;;29.97;35.86
48792;BME280;34587;48.816;9.420;2023-10-08T08:44:27;99698.00;;;32.55;32.20
48792;BME280;34587;48.816;9.420;2023-10-08T08:46:56;99701.19;;;33.06;30.41
48792;BME280;34587;48.816;9.420;2023-10-08T08:49:23;99713.25;;;33.74;28.57
48792;BME280;34587;48.816;9.420;2023-10-08T08:51:49;99708.78;;;34.89;27.59
48792;BME280;34587;48.816;9.420;2023-10-08T08:54:18;99706.34;;;32.89;29.16
48792;BME280;34587;48.816;9.420;2023-10-08T08:56:45;99694.72;;;33.89;28.52
48792;BME280;34587;48.816;9.420;2023-10-08T08:59:11;99699.38;;;31.33;30.48
48792;BME280;34587;48.816;9.420;2023-10-08T09:01:41;99695.03;;;33.50;28.30
48792;BME280;34587;48.816;9.420;2023-10-08T09:04:07;99698.28;;;32.33;29.51
48792;BME280;34587;48.816;9.420;2023-10-08T09:06:34;99697.28;;;34.78;27.37
48792;BME280;34587;48.816;9.420;2023-10-08T09:09:03;99691.72;;;35.73;26.17
48792;BME280;34587;48.816;9.420;2023-10-08T09:11:52;99691.34;;;34.23;27.88
48792;BME280;34587;48.816;9.420;2023-10-08T09:14:27;99692.63;;;34.89;27.15
48792;BME280;34587;48.816;9.420;2023-10-08T09:16:57;99696.41;;;31.36;30.98
48792;BME280;34587;48.816;9.420;2023-10-08T09:19:24;99696.13;;;30.48;32.38
48792;BME280;34587;48.816;9.420;2023-10-08T09:24:24;99701.72;;;23.71;43.72
48792;BME280;34587;48.816;9.420;2023-10-08T09:26:52;99704.78;;;24.40;44.13
48792;BME280;34587;48.816;9.420;2023-10-08T09:29:17;99692.25;;;24.72;41.72
48792;BME280;34587;48.816;9.420;2023-10-08T09:31:51;99696.31;;;26.67;38.95
48792;BME280;34587;48.816;9.420;2023-10-08T09:34:18;99699.72;;;27.44;37.13
48792;BME280;34587;48.816;9.420;2023-10-08T09:36:43;99693.66;;;26.54;38.42
48792;BME280;34587;48.816;9.420;2023-10-08T09:39:09;99686.50;;;27.79;35.20
48792;BME280;34587;48.816;9.420;2023-10-08T09:41:46;99696.56;;;28.10;35.94
48792;BME280;34587;48.816;9.420;2023-10-08T09:44:12;99697.94;;;26.04;39.32
48792;BME280;34587;48.816;9.420;2023-10-08T09:46:38;99698.84;;;24.20;42.38
48792;BME280;34587;48.816;9.420;2023-10-08T09:49:06;99696.31;;;23.25;45.52
48792;BME280;34587;48.816;9.420;2023-10-08T09:51:35;99692.66;;;22.46;47.67
48792;BME280;34587;48.816;9.420;2023-10-08T09:54:20;99687.00;;;22.36;49.58
48792;BME280;34587;48.816;9.420;2023-10-08T09:56:49;99673.56;;;22.06;50.42
48792;BME280;34587;48.816;9.420;2023-10-08T09:59:15;99695.63;;;22.22;50.39
48792;BME280;34587;48.816;9.420;2023-10-08T10:01:42;99688.31;;;22.27;51.42
48792;BME280;34587;48.816;9.420;2023-10-08T10:04:09;99678.50;;;22.47;50.22
48792;BME280;34587;48.816;9.420;2023-10-08T10:06:35;99688.22;;;22.46;50.16
48792;BME280;34587;48.816;9.420;2023-10-08T10:09:01;99688.22;;;23.13;48.30
48792;BME280;34587;48.816;9.420;2023-10-08T10:11:28;99705.53;;;22.69;49.72
48792;BME280;34587;48.816;9.420;2023-10-08T10:13:58;99713.31;;;23.53;48.12
48792;BME280;34587;48.816;9.420;2023-10-08T10:16:27;99711.22;;;24.05;46.31
48792;BME280;34587;48.816;9.420;2023-10-08T10:18:56;99720.16;;;24.49;44.65
48792;BME280;34587;48.816;9.420;2023-10-08T10:21:30;99716.38;;;25.38;42.49
48792;BME280;34587;48.816;9.420;2023-10-08T10:23:56;99718.66;;;24.29;44.39
48792;BME280;34587;48.816;9.420;2023-10-08T10:26:30;99723.78;;;25.19;42.63
48792;BME280;34587;48.816;9.420;2023-10-08T10:31:33;99707.53;;;25.79;42.10
48792;BME280;34587;48.816;9.420;2023-10-08T10:34:08;99707.81;;;26.02;41.02
48792;BME280;34587;48.816;9.420;2023-10-08T10:36:35;99709.16;;;24.55;43.98
48792;BME280;34587;48.816;9.420;2023-10-08T10:39:01;99712.69;;;24.25;45.45
48792;BME280;34587;48.816;9.420;2023-10-08T10:41:40;99707.25;;;23.82;46.10
48792;BME280;34587;48.816;9.420;2023-10-08T10:44:07;99705.63;;;23.48;46.98
48792;BME280;34587;48.816;9.420;2023-10-08T10:46:33;99704.44;;;23.85;47.54
48792;BME280;34587;48.816;9.420;2023-10-08T10:49:06;99698.41;;;23.98;46.61
48792;BME280;34587;48.816;9.420;2023-10-08T10:51:52;99718.59;;;23.53;48.58
48792;BME280;34587;48.816;9.420;2023-10-08T10:54:17;99703.53;;;24.01;47.31
48792;BME280;34587;48.816;9.420;2023-10-08T10:56:52;99694.53;;;24.33;46.19
48792;BME280;34587;48.816;9.420;2023-10-08T10:59:42;99700.84;;;24.61;45.70
48792;BME280;34587;48.816;9.420;2023-10-08T11:02:17;99693.09;;;24.58;45.65
48792;BME280;34587;48.816;9.420;2023-10-08T11:04:56;99684.69;;;25.77;43.25
48792;BME280;34587;48.816;9.420;2023-10-08T11:07:26;99682.03;;;26.93;41.39
48792;BME280;34587;48.816;9.420;2023-10-08T11:09:52;99684.00;;;26.53;40.46
48792;BME280;34587;48.816;9.420;2023-10-08T11:12:20;99677.94;;;27.26;40.06
48792;BME280;34587;48.816;9.420;2023-10-08T11:14:49;99685.69;;;26.01;42.20
48792;BME280;34587;48.816;9.420;2023-10-08T11:17:22;99686.78;;;25.99;42.20
48792;BME280;34587;48.816;9.420;2023-10-08T11:19:47;99682.91;;;26.81;41.39
48792;BME280;34587;48.816;9.420;2023-10-08T11:22:17;99677.59;;;26.68;41.54
48792;BME280;34587;48.816;9.420;2023-10-08T11:24:46;99676.69;;;27.19;40.89
48792;BME280;34587;48.816;9.420;2023-10-08T11:27:19;99675.78;;;26.30;41.26
48792;BME280;34587;48.816;9.420;2023-10-08T11:29:55;99672.19;;;27.56;39.01
48792;BME280;34587;48.816;9.420;2023-10-08T11:32:25;99670.53;;;31.16;33.77
48792;BME280;34587;48.816;9.420;2023-10-08T11:34:58;99666.09;;;30.13;34.66
48792;BME280;34587;48.816;9.420;2023-10-08T11:37:45;99660.91;;;28.47;36.27
48792;BME280;34587;48.816;9.420;2023-10-08T11:40:24;99654.59;;;27.66;37.77
48792;BME280;34587;48.816;9.420;2023-10-08T11:43:14;99647.34;;;28.61;36.57
48792;BME280;34587;48.816;9.420;2023-10-08T11:45:42;99643.94;;;29.04;35.69
48792;BME280;34587;48.816;9.420;2023-10-08T11:48:13;99650.09;;;27.06;39.25
48792;BME280;34587;48.816;9.420;2023-10-08T11:50:39;99641.91;;;28.05;38.93
48792;BME280;34587;48.816;9.420;2023-10-08T11:53:05;99640.69;;;28.09;37.13
48792;BME280;34587;48.816;9.420;2023-10-08T11:55:35;99641.63;;;27.97;38.37
48792;BME280;34587;48.816;9.420;2023-10-08T11:58:10;99638.78;;;27.76;38.02
48792;BME280;34587;48.816;9.420;2023-10-08T12:00:45;99645.16;;;27.25;39.17
48792;BME280;34587;48.816;9.420;2023-10-08T12:03:14;99641.56;;;27.74;38.59
48792;BME280;34587;48.816;9.420;2023-10-08T12:05:48;99632.81;;;27.24;40.07
48792;BME280;34587;48.816;9.420;2023-10-08T12:08:18;99627.97;;;26.92;40.22
48792;BME280;34587;48.816;9.420;2023-10-08T12:10:45;99628.16;;;26.02;42.00
48792;BME280;34587;48.816;9.420;2023-10-08T12:13:12;99626.19;;;25.51;42.57
48792;BME280;34587;48.816;9.420;2023-10-08T12:15:37;99621.34;;;25.58;42.45
48792;BME280;34587;48.816;9.420;2023-10-08T12:18:06;99623.53;;;25.78;42.37
48792;BME280;34587;48.816;9.420;2023-10-08T12:20:49;99617.81;;;25.84;42.66
48792;BME280;34587;48.816;9.420;2023-10-08T12:23:15;99613.00;;;25.77;42.60
48792;BME280;34587;48.816;9.420;2023-10-08T12:25:55;99599.44;;;25.67;43.21
48792;BME280;34587;48.816;9.420;2023-10-08T12:28:21;99599.56;;;25.26;44.16
48792;BME280;34587;48.816;9.420;2023-10-08T12:30:49;99595.59;;;24.63;44.73
48792;BME280;34587;48.816;9.420;2023-10-08T12:33:18;99587.72;;;24.90;44.75
48792;BME280;34587;48.816;9.420;2023-10-08T12:35:45;99592.03;;;25.32;44.23
48792;BME280;34587;48.816;9.420;2023-10-08T12:38:12;99580.97;;;25.66;43.54
48792;BME280;34587;48.816;9.420;2023-10-08T12:40:39;99589.22;;;26.01;42.33
48792;BME280;34587;48.816;9.420;2023-10-08T12:43:14;99580.44;;;25.87;42.51
48792;BME280;34587;48.816;9.420;2023-10-08T12:45:47;99581.06;;;26.29;41.48
48792;BME280;34587;48.816;9.420;2023-10-08T12:48:21;99585.22;;;26.08;42.85
48792;BME280;34587;48.816;9.420;2023-10-08T12:50:47;99585.06;;;26.35;42.38
48792;BME280;34587;48.816;9.420;2023-10-08T12:53:19;99588.03;;;26.81;41.35
48792;BME280;34587;48.816;9.420;2023-10-08T12:55:49;99593.28;;;26.70;40.56
48792;BME280;34587;48.816;9.420;2023-10-08T12:58:18;99587.56;;;26.87;40.72
48792;BME280;34587;48.816;9.420;2023-10-08T13:00:44;99591.94;;;24.93;43.59
48792;BME280;34587;48.816;9.420;2023-10-08T13:03:14;99581.34;;;25.34;44.25
48792;BME280;34587;48.816;9.420;2023-10-08T13:05:43;99579.84;;;25.30;44.08
48792;BME280;34587;48.816;9.420;2023-10-08T13:08:10;99585.44;;;24.70;45.68
48792;BME280;34587;48.816;9.420;2023-10-08T13:10:39;99581.78;;;25.41;43.69
48792;BME280;34587;48.816;9.420;2023-10-08T13:13:06;99579.97;;;25.14;43.10
48792;BME280;34587;48.816;9.420;2023-10-08T13:15:31;99583.06;;;25.48;43.84
48792;BME280;34587;48.816;9.420;2023-10-08T13:18:00;99588.72;;;26.21;41.74
48792;BME280;34587;48.816;9.420;2023-10-08T13:20:28;99578.75;;;26.12;41.29
48792;BME280;34587;48.816;9.420;2023-10-08T13:22:58;99583.72;;;26.04;41.74
48792;BME280;34587;48.816;9.420;2023-10-08T13:25:23;99575.97;;;26.52;40.94
48792;BME280;34587;48.816;9.420;2023-10-08T13:27:48;99574.56;;;26.59;40.95
48792;BME280;34587;48.816;9.420;2023-10-08T13:30:14;99566.69;;;26.57;41.05
48792;BME280;34587;48.816;9.420;2023-10-08T13:32:39;99571.72;;;26.11;41.48
48792;BME280;34587;48.816;9.420;2023-10-08T13:35:05;99567.75;;;26.42;41.01
48792;BME280;34587;48.816;9.420;2023-10-08T13:37:34;99572.47;;;25.87;41.58
48792;BME280;34587;48.816;9.420;2023-10-08T13:40:00;99575.31;;;26.10;42.28
48792;BME280;34587;48.816;9.420;2023-10-08T13:42:26;99556.41;;;26.27;41.31
48792;BME280;34587;48.816;9.420;2023-10-08T13:44:55;99559.38;;;26.10;42.25
48792;BME280;34587;48.816;9.420;2023-10-08T13:47:24;99562.91;;;25.04;43.88
48792;BME280;34587;48.816;9.420;2023-10-08T13:49:53;99562.59;;;24.96;43.72
48792;BME280;34587;48.816;9.420;2023-10-08T13:52:19;99560.66;;;25.12;43.67
48792;BME280;34587;48.816;9.420;2023-10-08T13:54:52;99554.72;;;24.94;44.74
48792;BME280;34587;48.816;9.420;2023-10-08T13:57:19;99554.09;;;25.18;44.67
48792;BME280;34587;48.816;9.420;2023-10-08T13:59:45;99549.34;;;24.96;44.16
48792;BME280;34587;48.816;9.420;2023-10-08T14:02:12;99549.13;;;24.99;44.80
48792;BME280;34587;48.816;9.420;2023-10-08T14:04:41;99550.31;;;24.80;45.74
48792;BME280;34587;48.816;9.420;2023-10-08T14:07:09;99552.91;;;25.09;45.72
48792;BME280;34587;48.816;9.420;2023-10-08T14:09:37;99551.09;;;24.68;47.05
48792;BME280;34587;48.816;9.420;2023-10-08T14:12:03;99550.19;;;24.41;47.15
48792;BME280;34587;48.816;9.420;2023-10-08T14:14:30;99548.06;;;24.03;48.77
48792;BME280;34587;48.816;9.420;2023-10-08T14:16:56;99563.28;;;23.85;49.12
48792;BME280;34587;48.816;9.420;2023-10-08T14:19:25;99562.19;;;23.73;50.55
48792;BME280;34587;48.816;9.420;2023-10-08T14:22:03;99560.38;;;23.59;49.30
48792;BME280;34587;48.816;9.420;2023-10-08T14:24:30;99558.81;;;23.71;49.33
48792;BME280;34587;48.816;9.420;2023-10-08T14:26:58;99561.56;;;23.54;49.67
48792;BME280;34587;48.816;9.420;2023-10-08T14:29:28;99560.16;;;23.63;49.51
48792;BME280;34587;48.816;9.420;2023-10-08T14:31:54;99557.72;;;23.90;48.53
48792;BME280;34587;48.816;9.420;2023-10-08T14:34:22;99554.19;;;23.59;49.28
48792;BME280;34587;48.816;9.420;2023-10-08T14:37:07;99556.28;;;23.84;48.68
48792;BME280;34587;48.816;9.420;2023-10-08T14:39:51;99550.34;;;23.95;46.98
48792;BME280;34587;48.816;9.420;2023-10-08T14:42:35;99559.78;;;23.84;48.41
48792;BME280;34587;48.816;9.420;2023-10-08T14:45:19;99555.94;;;23.60;50.25
48792;BME280;34587;48.816;9.420;2023-10-08T14:47:45;99553.50;;;23.41;52.43
48792;BME280;34587;48.816;9.420;2023-10-08T14:50:10;99563.00;;;23.29;52.14
48792;BME280;34587;48.816;9.420;2023-10-08T14:52:43;99558.81;;;23.25;52.93
48792;BME280;34587;48.816;9.420;2023-10-08T14:55:08;99556.81;;;23.45;52.68
48792;BME280;34587;48.816;9.420;2023-10-08T14:57:33;99547.94;;;23.46;51.80
48792;BME280;34587;48.816;9.420;2023-10-08T14:59:58;99556.31;;;23.38;54.21
48792;BME280;34587;48.816;9.420;2023-10-08T15:02:24;99559.09;;;23.05;52.67
48792;BME280;34587;48.816;9.420;2023-10-08T15:04:54;99556.53;;;22.88;54.62
48792;BME280;34587;48.816;9.420;2023-10-08T15:07:20;99553.59;;;22.94;55.16
48792;BME280;34587;48.816;9.420;2023-10-08T15:09:46;99556.38;;;23.22;53.46
48792;BME280;34587;48.816;9.420;2023-10-08T15:12:11;99552.25;;;23.32;55.68
48792;BME280;34587;48.816;9.420;2023-10-08T15:14:36;99556.72;;;23.16;55.66
48792;BME280;34587;48.816;9.420;2023-10-08T15:17:03;99556.88;;;23.13;56.68
48792;BME280;34587;48.816;9.420;2023-10-08T15:19:30;99556.06;;;22.97;55.74
48792;BME280;34587;48.816;9.420;2023-10-08T15:21:57;99554.00;;;23.02;55.33
48792;BME280;34587;48.816;9.420;2023-10-08T15:24:23;99553.59;;;22.94;55.68
48792;BME280;34587;48.816;9.420;2023-10-08T15:26:52;99551.41;;;22.84;54.78
48792;BME280;34587;48.816;9.420;2023-10-08T15:29:18;99548.44;;;23.22;53.39
48792;BME280;34587;48.816;9.420;2023-10-08T15:31:46;99545.25;;;23.31;53.55
48792;BME280;34587;48.816;9.420;2023-10-08T15:34:11;99541.53;;;23.04;55.56
48792;BME280;34587;48.816;9.420;2023-10-08T15:36:39;99553.47;;;22.95;56.25
48792;BME280;34587;48.816;9.420;2023-10-08T15:39:04;99551.25;;;22.56;57.60
48792;BME280;34587;48.816;9.420;2023-10-08T15:41:30;99537.78;;;22.45;58.13
48792;BME280;34587;48.816;9.420;2023-10-08T15:43:55;99538.38;;;22.34;58.90
48792;BME280;34587;48.816;9.420;2023-10-08T15:46:26;99538.75;;;22.26;59.19
48792;BME280;34587;48.816;9.420;2023-10-08T15:48:52;99531.69;;;22.27;59.54
48792;BME280;34587;48.816;9.420;2023-10-08T15:51:18;99533.81;;;22.20;59.63
48792;BME280;34587;48.816;9.420;2023-10-08T15:53:44;99526.66;;;22.22;60.35
48792;BME280;34587;48.816;9.420;2023-10-08T15:56:09;99524.06;;;22.05;66.47
48792;BME280;34587;48.816;9.420;2023-10-08T15:58:34;99519.00;;;21.67;70.18
48792;BME280;34587;48.816;9.420;2023-10-08T16:01:00;99522.25;;;21.38;74.88
48792;BME280;34587;48.816;9.420;2023-10-08T16:03:25;99525.47;;;21.08;78.85
48792;BME280;34587;48.816;9.420;2023-10-08T16:05:50;99531.19;;;20.99;80.79
48792;BME280;34587;48.816;9.420;2023-10-08T16:08:16;99530.50;;;20.76;83.20
48792;BME280;34587;48.816;9.420;2023-10-08T16:10:41;99528.91;;;20.72;83.84
48792;BME280;34587;48.816;9.420;2023-10-08T16:13:07;99531.06;;;20.64;83.76
48792;BME280;34587;48.816;9.420;2023-10-08T16:15:34;99535.25;;;20.68;84.23
48792;BME280;34587;48.816;9.420;2023-10-08T16:18:00;99535.34;;;20.67;84.14
48792;BME280;34587;48.816;9.420;2023-10-08T16:20:25;99529.22;;;20.66;85.60
48792;BME280;34587;48.816;9.420;2023-10-08T16:22:51;99529.94;;;20.51;86.25
48792;BME280;34587;48.816;9.420;2023-10-08T16:25:17;99537.44;;;20.40;87.91
48792;BME280;34587;48.816;9.420;2023-10-08T16:27:44;99527.63;;;20.43;87.07
48792;BME280;34587;48.816;9.420;2023-10-08T16:30:20;99527.84;;;20.39;86.38
48792;BME280;34587;48.816;9.420;2023-10-08T16:32:54;99529.91;;;20.32;89.74
48792;BME280;34587;48.816;9.420;2023-10-08T16:35:20;99533.25;;;20.17;91.37
48792;BME280;34587;48.816;9.420;2023-10-08T16:37:46;99531.34;;;20.00;91.74
48792;BME280;34587;48.816;9.420;2023-10-08T16:40:12;99545.75;;;19.91;93.42
48792;BME280;34587;48.816;9.420;2023-10-08T16:42:38;99531.22;;;20.03;91.24
48792;BME280;34587;48.816;9.420;2023-10-08T16:45:04;99538.06;;;20.07;87.29
48792;BME280;34587;48.816;9.420;2023-10-08T16:47:31;99537.16;;;19.67;88.60
48792;BME280;34587;48.816;9.420;2023-10-08T16:49:57;99542.94;;;19.33;92.09
48792;BME280;34587;48.816;9.420;2023-10-08T16:52:23;99554.59;;;19.06;96.08
48792;BME280;34587;48.816;9.420;2023-10-08T16:54:49;99555.69;;;19.00;95.38
48792;BME280;34587;48.816;9.420;2023-10-08T16:57:15;99559.47;;;18.93;96.29
48792;BME280;34587;48.816;9.420;2023-10-08T16:59:41;99567.28;;;18.72;98.98
48792;BME280;34587;48.816;9.420;2023-10-08T17:02:06;99573.69;;;18.64;100.00
48792;BME280;34587;48.816;9.420;2023-10-08T17:04:31;99562.59;;;18.57;100.00
48792;BME280;34587;48.816;9.420;2023-10-08T17:06:56;99558.31;;;18.55;100.00
48792;BME280;34587;48.816;9.420;2023-10-08T17:09:23;99561.78;;;18.32;100.00
48792;BME280;34587;48.816;9.420;2023-10-08T17:11:52;99561.56;;;18.14;100.00
48792;BME280;34587;48.816;9.420;2023-10-08T17:14:17;99563.22;;;17.92;100.00
48792;BME280;34587;48.816;9.420;2023-10-08T17:16:43;99557.75;;;17.73;100.00
48792;BME280;34587;48.816;9.420;2023-10-08T17:19:09;99563.06;;;17.45;100.00
48792;BME280;34587;48.816;9.420;2023-10-08T17:21:35;99551.28;;;17.32;100.00
48792;BME280;34587;48.816;9.420;2023-10-08T17:24:00;99544.44;;;17.28;100.00
48792;BME280;34587;48.816;9.420;2023-10-08T17:26:25;99546.72;;;17.10;100.00
48792;BME280;34587;48.816;9.420;2023-10-08T17:28:50;99549.91;;;16.93;100.00
48792;BME280;34587;48.816;9.420;2023-10-08T17:31:16;99551.84;;;16.87;100.00
48792;BME280;34587;48.816;9.420;2023-10-08T17:33:41;99546.94;;;16.76;100.00
48792;BME280;34587;48.816;9.420;2023-10-08T17:36:09;99552.41;;;16.68;100.00
48792;BME280;34587;48.816;9.420;2023-10-08T17:38:35;99548.47;;;16.54;100.00
48792;BME280;34587;48.816;9.420;2023-10-08T17:41:01;99551.13;;;16.52;100.00
48792;BME280;34587;48.816;9.420;2023-10-08T17:43:27;99557.59;;;16.39;100.00
48792;BME280;34587;48.816;9.420;2023-10-08T17:45:52;99558.16;;;16.21;100.00
48792;BME280;34587;48.816;9.420;2023-10-08T17:48:18;99557.06;;;16.28;100.00
48792;BME280;34587;48.816;9.420;2023-10-08T17:50:49;99566.13;;;16.16;100.00
48792;BME280;34587;48.816;9.420;2023-10-08T17:53:16;99565.28;;;16.15;100.00
48792;BME280;34587;48.816;9.420;2023-10-08T17:55:41;99568.03;;;16.11;100.00
48792;BME280;34587;48.816;9.420;2023-10-08T17:58:06;99570.91;;;16.00;100.00
48792;BME280;34587;48.816;9.420;2023-10-08T18:00:32;99574.66;;;15.90;100.00
48792;BME280;34587;48.816;9.420;2023-10-08T18:02:58;99574.78;;;15.87;100.00